Terminal Aerodrome Forecast
Issued by NWS

Current Version | Previous Version | Graphics & Text | Print | Product List | Glossary On
Versions: 1 2 3 4 5 6 7 8 9 10 11 12 13 14 15 16 17 18 19 20 21 22 23 24 25 26 27
000
FTUS41 KPBZ 270700 AAA
TAFHLG
TAF AMD
KHLG 270728Z 2707/2806 00000KT 1/4SM FG OVC002
      TEMPO 2707/2711 1SM BR BKN004
     FM271500 27008KT 5SM BR OVC009
     FM271800 30010KT 5SM -SHSN OVC025=

USA.gov is the U.S. government's official web portal to all federal, state and local government web resources and services.